Time;durP1;ratioP1;P1;durP2;ratioP2;P2;SDS_P1;SDS_P2;PMS_P1;PMS_P2;Temp;Humidity;BMP_temperature;BMP_pressure;BME280_temperature;BME280_humidity;BME280_pressure;Samples;Min_cycle;Max_cycle;Signal;HPM_P1;HPM_P2
2021/12/04 00:00:47;;;;;;;15.35;7.65;;;5.40;99.90;;;;;;4975279;28;20023;-81
2021/12/04 00:03:13;;;;;;;13.40;7.05;;;5.40;99.90;;;;;;4982813;28;20506;-81
2021/12/04 00:05:41;;;;;;;13.68;6.97;;;5.50;99.90;;;;;;4984979;28;20525;-79
2021/12/04 00:08:07;;;;;;;;;;;5.50;99.90;;;;;;5001220;28;20019;-81
2021/12/04 00:10:32;;;;;;;12.40;7.28;;;5.50;99.90;;;;;;4985195;28;19933;-81
2021/12/04 00:12:58;;;;;;;11.20;7.10;;;5.60;99.90;;;;;;4987070;28;20483;-79
2021/12/04 00:15:23;;;;;;;14.00;8.02;;;5.60;99.90;;;;;;4995318;28;20042;-81
2021/12/04 00:17:49;;;;;;;14.57;7.28;;;5.60;99.90;;;;;;4981865;28;20158;-80
2021/12/04 00:20:15;;;;;;;14.75;8.15;;;5.70;99.90;;;;;;4983014;28;20173;-79
2021/12/04 00:22:41;;;;;;;15.05;7.78;;;5.60;99.90;;;;;;4994771;28;20034;-82
2021/12/04 00:25:08;;;;;;;15.07;8.70;;;5.70;99.90;;;;;;4990164;28;20027;-81
2021/12/04 00:27:34;;;;;;;13.65;7.60;;;5.60;99.90;;;;;;4992494;28;20046;-81
2021/12/04 00:30:00;;;;;;;14.48;8.50;;;5.70;99.90;;;;;;4992122;28;20026;-82
2021/12/04 00:32:35;;;;;;;14.18;8.50;;;5.70;99.90;;;;;;4992702;28;20044;-81
2021/12/04 00:43:26;;;;;;;15.23;8.50;;;5.80;99.90;;;;;;4987796;28;20395;-81
2021/12/04 00:51:20;;;;;;;15.05;8.70;;;5.70;99.90;;;;;;4992051;28;20092;-81
2021/12/04 00:53:47;;;;;;;18.92;8.90;;;5.70;99.90;;;;;;4992758;28;20022;-82
2021/12/04 00:56:14;;;;;;;16.92;8.75;;;5.70;99.90;;;;;;4992506;28;20498;-82
2021/12/04 00:58:39;;;;;;;22.23;8.95;;;5.70;99.90;;;;;;4989459;28;20062;-81
2021/12/04 01:01:05;;;;;;;18.80;9.55;;;5.70;99.90;;;;;;4985635;28;20117;-82
2021/12/04 01:03:34;;;;;;;22.13;9.57;;;5.70;99.90;;;;;;4989224;28;20035;-81
2021/12/04 01:06:00;;;;;;;19.80;9.20;;;5.70;99.90;;;;;;4977651;28;20050;-82
2021/12/04 01:08:26;;;;;;;21.92;9.38;;;5.70;99.90;;;;;;4985615;28;20026;-82
2021/12/04 01:10:51;;;;;;;22.40;10.18;;;5.70;99.90;;;;;;4992533;28;20029;-82
2021/12/04 01:13:17;;;;;;;26.33;10.45;;;5.70;99.90;;;;;;4991320;28;20033;-82
2021/12/04 01:15:44;;;;;;;24.10;9.80;;;5.70;99.90;;;;;;4978583;28;20023;-82
2021/12/04 01:18:11;;;;;;;20.95;10.75;;;5.70;99.90;;;;;;4987997;28;20117;-83
2021/12/04 01:20:37;;;;;;;28.10;12.23;;;5.70;99.90;;;;;;4991435;28;20019;-82
2021/12/04 01:23:03;;;;;;;24.10;11.25;;;5.70;99.90;;;;;;4984545;28;20119;-82
2021/12/04 01:25:30;;;;;;;32.70;12.02;;;5.70;99.90;;;;;;4978434;28;20042;-81
2021/12/04 01:27:55;;;;;;;26.33;10.63;;;5.70;99.90;;;;;;4978164;28;20464;-81
2021/12/04 01:30:22;;;;;;;26.25;11.18;;;5.70;99.90;;;;;;4981379;28;20030;-82
2021/12/04 01:32:48;;;;;;;26.30;12.25;;;5.70;99.90;;;;;;4991122;28;20108;-81
2021/12/04 01:35:14;;;;;;;30.30;11.85;;;5.70;99.90;;;;;;4991461;28;20023;-81
2021/12/04 01:37:39;;;;;;;32.20;12.07;;;5.70;99.90;;;;;;4985874;28;20019;-82
2021/12/04 01:40:06;;;;;;;31.45;11.60;;;5.70;99.90;;;;;;4984518;28;20137;-82
2021/12/04 01:42:35;;;;;;;27.20;11.75;;;5.70;99.90;;;;;;4990197;28;20049;-82
2021/12/04 01:45:01;;;;;;;41.28;13.82;;;5.70;99.90;;;;;;4982745;28;20019;-81
2021/12/04 01:47:27;;;;;;;35.83;13.23;;;5.70;99.90;;;;;;4994340;28;20141;-82
2021/12/04 01:49:54;;;;;;;33.97;13.20;;;5.70;99.90;;;;;;4984404;28;20054;-83
2021/12/04 01:52:20;;;;;;;30.20;12.25;;;5.70;99.90;;;;;;4991418;28;20116;-82
2021/12/04 01:54:47;;;;;;;36.08;13.25;;;5.80;99.90;;;;;;4989965;28;20030;-83
2021/12/04 01:57:16;;;;;;;39.67;13.00;;;5.80;99.90;;;;;;4996665;28;20511;-82
2021/12/04 01:59:43;;;;;;;32.75;13.82;;;5.80;99.90;;;;;;4985107;28;20030;-82
2021/12/04 02:02:08;;;;;;;43.05;14.15;;;5.80;99.90;;;;;;4987435;28;20050;-82
2021/12/04 02:04:34;;;;;;;33.90;13.05;;;5.80;99.90;;;;;;4977041;28;20043;-81
2021/12/04 02:07:03;;;;;;;39.45;15.45;;;5.80;99.90;;;;;;4989911;28;20031;-82
2021/12/04 02:09:30;;;;;;;44.30;15.30;;;5.80;99.90;;;;;;4981683;28;20109;-81
2021/12/04 02:11:56;;;;;;;37.90;15.60;;;5.80;99.90;;;;;;4997244;28;20458;-82
2021/12/04 02:14:21;;;;;;;47.78;15.32;;;5.70;99.90;;;;;;4988000;28;20049;-82
2021/12/04 02:16:49;;;;;;;54.38;17.90;;;5.80;99.90;;;;;;5012169;28;20399;-82
2021/12/04 02:19:15;;;;;;;40.70;15.68;;;5.80;99.90;;;;;;4996232;28;20014;-83
2021/12/04 02:21:40;;;;;;;37.13;13.80;;;5.90;99.90;;;;;;4988279;28;20538;-82
2021/12/04 02:24:06;;;;;;;55.75;15.98;;;5.90;99.90;;;;;;4993367;28;20032;-83
2021/12/04 02:26:32;;;;;;;39.85;14.90;;;5.90;99.90;;;;;;4991391;28;20051;-82
2021/12/04 02:28:58;;;;;;;46.88;14.88;;;5.90;99.90;;;;;;4982279;28;20034;-83
2021/12/04 02:31:24;;;;;;;38.05;15.20;;;5.90;99.90;;;;;;4985501;28;20035;-83
2021/12/04 02:33:50;;;;;;;53.65;16.58;;;5.80;99.90;;;;;;4995943;28;20030;-82
2021/12/04 02:36:16;;;;;;;46.50;16.60;;;5.80;99.90;;;;;;4978539;28;20638;-82
2021/12/04 02:38:43;;;;;;;41.47;15.30;;;5.80;99.90;;;;;;4993045;28;20038;-84
2021/12/04 02:41:09;;;;;;;42.22;15.10;;;5.80;99.90;;;;;;4978977;28;20019;-82
2021/12/04 02:43:35;;;;;;;42.30;16.15;;;5.80;99.90;;;;;;4976381;28;20023;-83
2021/12/04 02:46:02;;;;;;;45.55;16.05;;;5.90;99.90;;;;;;4977906;28;20081;-83
2021/12/04 02:48:27;;;;;;;58.88;17.33;;;5.80;99.90;;;;;;4986701;28;20046;-82
2021/12/04 02:50:53;;;;;;;49.70;15.23;;;5.90;99.90;;;;;;4977632;28;20512;-82
2021/12/04 02:53:19;;;;;;;44.30;14.45;;;5.90;99.90;;;;;;4982972;28;20054;-83
2021/12/04 02:55:45;;;;;;;48.65;15.35;;;5.90;99.90;;;;;;4980901;28;20034;-83
2021/12/04 02:58:13;;;;;;;44.92;15.68;;;5.90;99.90;;;;;;4985663;28;20046;-82
2021/12/04 03:00:46;;;;;;;39.22;15.38;;;5.90;99.90;;;;;;4988825;28;20426;-83
2021/12/04 03:03:11;;;;;;;52.03;15.70;;;5.90;99.90;;;;;;4990624;28;20061;-82
2021/12/04 03:05:37;;;;;;;43.78;16.00;;;5.90;99.90;;;;;;4987027;28;20454;-83
2021/12/04 03:08:04;;;;;;;46.00;17.10;;;6.00;99.90;;;;;;4987219;28;20018;-83
2021/12/04 03:10:29;;;;;;;50.95;16.05;;;5.90;99.90;;;;;;4991747;28;20035;-82
2021/12/04 03:12:55;;;;;;;44.58;16.52;;;5.90;99.90;;;;;;4982315;28;20039;-83
2021/12/04 03:15:21;;;;;;;49.85;15.65;;;5.90;99.90;;;;;;4988210;28;20034;-84
2021/12/04 03:17:48;;;;;;;48.83;15.57;;;6.00;99.90;;;;;;4993843;28;20031;-83
2021/12/04 03:20:14;;;;;;;55.90;17.38;;;5.90;99.90;;;;;;4978695;28;20035;-83
2021/12/04 03:22:41;;;;;;;51.88;15.45;;;5.90;99.90;;;;;;4992241;28;20031;-83
2021/12/04 03:25:07;;;;;;;49.35;15.95;;;5.90;99.90;;;;;;4977476;28;20031;-82
2021/12/04 03:27:33;;;;;;;46.33;16.85;;;5.90;99.90;;;;;;4995538;28;20022;-83
2021/12/04 03:30:04;;;;;;;44.72;14.30;;;5.90;99.90;;;;;;4986417;28;20053;-82
2021/12/04 03:40:58;;;;;;;46.45;15.57;;;5.90;99.90;;;;;;4995325;28;20066;-83
2021/12/04 03:43:23;;;;;;;45.08;14.60;;;5.90;99.90;;;;;;4995691;28;20034;-82
2021/12/04 03:45:55;;;;;;;42.10;15.52;;;5.90;99.90;;;;;;4991815;28;20035;-83
2021/12/04 03:51:02;;;;;;;;;;;6.00;99.90;;;;;;4996826;28;20043;-82
2021/12/04 03:53:29;;;;;;;47.35;15.18;;;6.00;99.90;;;;;;4990227;28;19914;-83
2021/12/04 03:55:56;;;;;;;39.75;13.55;;;6.00;99.90;;;;;;4990745;28;20495;-80
2021/12/04 03:58:22;;;;;;;40.28;13.68;;;6.00;99.90;;;;;;4993768;28;20084;-82
2021/12/04 04:00:49;;;;;;;47.45;14.77;;;6.00;99.90;;;;;;4993953;28;20466;-82
2021/12/04 04:03:14;;;;;;;47.40;15.65;;;6.00;99.90;;;;;;4986527;28;20038;-82
2021/12/04 04:05:40;;;;;;;39.17;14.13;;;6.00;99.90;;;;;;4991669;28;20048;-83
2021/12/04 04:08:06;;;;;;;55.35;15.65;;;6.10;99.90;;;;;;4977627;28;20027;-83
2021/12/04 04:10:32;;;;;;;49.03;15.18;;;6.10;99.90;;;;;;4990758;28;20118;-83
2021/12/04 04:12:58;;;;;;;41.90;14.18;;;6.10;99.90;;;;;;4992506;28;20035;-83
2021/12/04 04:15:24;;;;;;;50.47;14.25;;;6.10;99.90;;;;;;4983262;28;20061;-82
2021/12/04 04:17:50;;;;;;;40.45;14.45;;;6.10;99.90;;;;;;4977052;28;20019;-83
2021/12/04 04:20:19;;;;;;;40.80;14.93;;;6.00;99.90;;;;;;4994749;28;20022;-84
2021/12/04 04:22:46;;;;;;;41.97;14.65;;;6.10;99.90;;;;;;4987929;28;20056;-83
2021/12/04 04:25:14;;;;;;;33.10;12.75;;;6.10;99.90;;;;;;4995015;28;20039;-84
2021/12/04 04:27:40;;;;;;;43.58;13.98;;;6.10;99.90;;;;;;4982538;28;20479;-84
2021/12/04 04:30:11;;;;;;;44.22;14.45;;;6.10;99.90;;;;;;4995868;28;20038;-82
2021/12/04 04:32:37;;;;;;;41.25;16.25;;;6.10;99.90;;;;;;4976632;28;20042;-83
2021/12/04 04:35:13;;;;;;;40.45;14.48;;;6.10;99.90;;;;;;4983722;28;20073;-83
2021/12/04 05:12:25;;;;;;;51.25;14.93;;;6.00;99.90;;;;;;4994508;28;20048;-83
2021/12/04 05:14:59;;;;;;;44.67;14.30;;;6.00;99.90;;;;;;4976793;28;20487;-83
2021/12/04 05:17:40;;;;;;;39.30;14.20;;;6.00;99.90;;;;;;4994683;28;20101;-83
2021/12/04 05:20:06;;;;;;;42.53;13.80;;;6.00;99.90;;;;;;4987766;28;20027;-83
2021/12/04 05:22:32;;;;;;;58.95;15.40;;;6.00;99.90;;;;;;4987601;28;20142;-84
2021/12/04 05:24:58;;;;;;;48.25;14.13;;;6.10;99.90;;;;;;4998907;28;20062;-83
2021/12/04 05:27:23;;;;;;;42.40;14.93;;;6.10;99.90;;;;;;4980195;28;20031;-83
2021/12/04 05:29:49;;;;;;;57.58;14.07;;;6.10;99.90;;;;;;4981511;28;20443;-83
2021/12/04 05:32:16;;;;;;;50.50;14.35;;;6.00;99.90;;;;;;4986685;28;20097;-83
2021/12/04 05:34:42;;;;;;;45.35;13.50;;;6.10;99.90;;;;;;4990774;28;20022;-83
2021/12/04 05:37:08;;;;;;;55.30;14.73;;;6.10;99.90;;;;;;4989670;28;20042;-83
2021/12/04 05:39:34;;;;;;;53.40;16.27;;;6.10;99.90;;;;;;4998199;28;20495;-82
2021/12/04 05:42:00;;;;;;;60.08;15.20;;;6.00;99.90;;;;;;4996418;28;20023;-82
2021/12/04 05:44:27;;;;;;;54.42;14.50;;;6.00;99.90;;;;;;4997464;28;20066;-83
2021/12/04 05:50:01;;;;;;;57.38;14.40;;;6.00;99.90;;;;;;5036675;28;20390;-84
2021/12/04 05:55:26;;;;;;;42.92;14.07;;;6.00;99.90;;;;;;5010157;28;20027;-82
2021/12/04 05:57:51;;;;;;;41.40;15.15;;;6.10;99.90;;;;;;4978540;28;20054;-83
2021/12/04 06:00:23;;;;;;;55.17;14.98;;;6.00;99.90;;;;;;4980438;28;20427;-83
2021/12/04 06:02:48;;;;;;;49.80;15.13;;;6.10;99.90;;;;;;4986291;28;20019;-83
2021/12/04 06:05:17;;;;;;;49.33;15.38;;;6.10;99.90;;;;;;4987964;28;20165;-84
2021/12/04 06:07:43;;;;;;;52.75;15.88;;;6.10;99.90;;;;;;4996734;28;20383;-84
2021/12/04 06:10:10;;;;;;;47.03;15.35;;;6.10;99.90;;;;;;4998541;28;20018;-83
2021/12/04 06:12:36;;;;;;;36.30;13.57;;;6.10;99.90;;;;;;4991802;28;20046;-84
2021/12/04 06:15:02;;;;;;;54.92;16.13;;;6.20;99.90;;;;;;4979946;28;20023;-84
2021/12/04 06:17:29;;;;;;;54.10;15.27;;;6.20;99.90;;;;;;4995427;28;20030;-83
2021/12/04 06:22:43;;;;;;;62.85;14.98;;;6.10;99.90;;;;;;4993607;28;20106;-83
2021/12/04 06:25:15;;;;;;;55.03;15.75;;;6.10;99.90;;;;;;4979775;28;20027;-84
2021/12/04 06:27:43;;;;;;;41.25;13.85;;;6.10;99.90;;;;;;4978975;28;20023;-84
2021/12/04 06:30:12;;;;;;;49.60;15.13;;;6.10;99.90;;;;;;4984230;28;20026;-83
2021/12/04 06:32:38;;;;;;;46.50;15.85;;;6.10;99.90;;;;;;4996279;28;20030;-84
2021/12/04 06:35:06;;;;;;;61.22;15.65;;;6.10;99.90;;;;;;4982669;28;20081;-83
2021/12/04 06:37:31;;;;;;;55.47;14.95;;;6.10;99.90;;;;;;4990945;28;20029;-84
2021/12/04 06:39:57;;;;;;;60.05;15.77;;;6.10;99.90;;;;;;4981280;28;20027;-82
2021/12/04 06:42:23;;;;;;;42.75;14.38;;;6.10;99.90;;;;;;4980812;28;20023;-83
2021/12/04 06:44:52;;;;;;;58.88;14.38;;;6.10;99.90;;;;;;4981270;28;20030;-85
2021/12/04 06:47:17;;;;;;;41.00;13.38;;;6.10;99.90;;;;;;4987845;28;20090;-85
2021/12/04 06:49:44;;;;;;;49.47;15.85;;;6.20;99.90;;;;;;4980562;28;20446;-84
2021/12/04 06:52:15;;;;;;;44.22;14.00;;;6.20;99.90;;;;;;4997566;28;20022;-85
2021/12/04 06:54:53;;;;;;;49.42;14.48;;;6.20;99.90;;;;;;4996833;28;20027;-84
2021/12/04 06:57:18;;;;;;;53.87;15.13;;;6.20;99.90;;;;;;4994428;28;20038;-84
2021/12/04 06:59:46;;;;;;;50.08;14.52;;;6.20;99.90;;;;;;4980973;28;20320;-84
2021/12/04 07:02:13;;;;;;;47.25;14.50;;;6.20;99.90;;;;;;4988913;28;20113;-84
2021/12/04 07:04:39;;;;;;;43.13;14.30;;;6.20;99.90;;;;;;4979796;28;20136;-84
2021/12/04 07:07:05;;;;;;;54.95;15.52;;;6.10;99.90;;;;;;4995899;28;20435;-83
2021/12/04 07:09:32;;;;;;;54.10;15.63;;;6.10;99.90;;;;;;4978481;28;20018;-84
2021/12/04 07:11:59;;;;;;;46.95;15.50;;;6.20;99.90;;;;;;4988284;28;20125;-84
2021/12/04 07:14:26;;;;;;;45.45;15.45;;;6.20;99.90;;;;;;4993327;28;20066;-83
2021/12/04 07:16:51;;;;;;;48.38;15.63;;;6.30;99.90;;;;;;4995972;28;20169;-84
2021/12/04 07:19:17;;;;;;;50.92;16.17;;;6.20;99.90;;;;;;4989444;28;20051;-84
2021/12/04 07:21:45;;;;;;;48.00;15.38;;;6.20;99.90;;;;;;4977966;28;20177;-84
2021/12/04 07:24:12;;;;;;;67.10;14.80;;;6.20;99.90;;;;;;4991687;28;20104;-82
2021/12/04 07:26:38;;;;;;;41.67;13.80;;;6.20;99.90;;;;;;4997086;28;20061;-84
2021/12/04 07:29:03;;;;;;;49.58;15.57;;;6.10;99.90;;;;;;4990316;28;20435;-84
2021/12/04 07:31:29;;;;;;;52.80;16.30;;;6.20;99.90;;;;;;4981372;28;20030;-84
2021/12/04 07:33:56;;;;;;;54.08;15.68;;;6.20;99.90;;;;;;4997243;28;20053;-85
2021/12/04 07:36:22;;;;;;;56.67;14.88;;;6.20;99.90;;;;;;4987756;28;20038;-84
2021/12/04 07:38:48;;;;;;;45.53;14.65;;;6.20;99.90;;;;;;4996922;28;20057;-84
2021/12/04 07:41:15;;;;;;;56.17;15.25;;;6.20;99.90;;;;;;4997425;28;20034;-83
2021/12/04 07:43:40;;;;;;;48.92;16.30;;;6.20;99.90;;;;;;4984620;28;20058;-83
2021/12/04 07:46:06;;;;;;;57.33;15.43;;;6.20;99.90;;;;;;4984572;28;20031;-83
2021/12/04 07:48:32;;;;;;;52.38;15.45;;;6.20;99.90;;;;;;4994658;28;20388;-84
2021/12/04 07:51:01;;;;;;;51.92;15.07;;;6.20;99.90;;;;;;4993602;28;20138;-84
2021/12/04 07:53:27;;;;;;;50.17;16.00;;;6.20;99.90;;;;;;4993957;28;20041;-84
2021/12/04 07:55:53;;;;;;;47.78;15.95;;;6.20;99.90;;;;;;4985715;28;20412;-83
2021/12/04 07:58:19;;;;;;;50.53;14.98;;;6.20;99.90;;;;;;4976602;28;20043;-83
2021/12/04 08:00:44;;;;;;;48.22;15.68;;;6.20;99.90;;;;;;4986208;28;20022;-84
2021/12/04 08:03:10;;;;;;;49.60;16.20;;;6.20;99.90;;;;;;4986562;28;20018;-84
2021/12/04 08:05:36;;;;;;;49.58;17.13;;;6.30;99.90;;;;;;4990882;28;20030;-84
2021/12/04 08:08:02;;;;;;;39.33;14.40;;;6.20;99.90;;;;;;4994749;28;20033;-84
2021/12/04 08:10:28;;;;;;;50.65;16.13;;;6.30;99.90;;;;;;4977861;28;20333;-84
2021/12/04 08:12:54;;;;;;;61.83;15.98;;;6.30;99.90;;;;;;4980224;28;20484;-83
2021/12/04 08:15:20;;;;;;;40.15;13.73;;;6.30;99.90;;;;;;4987044;28;20468;-84
2021/12/04 08:17:46;;;;;;;41.78;14.05;;;6.40;99.90;;;;;;4991849;28;20027;-83
2021/12/04 08:20:14;;;;;;;49.35;13.90;;;6.30;99.90;;;;;;4992588;28;20033;-84
2021/12/04 08:22:40;;;;;;;50.20;15.70;;;6.40;99.90;;;;;;4983962;28;20029;-83
2021/12/04 08:25:08;;;;;;;50.72;16.17;;;6.30;99.90;;;;;;4979447;28;20341;-84
2021/12/04 08:27:35;;;;;;;40.17;14.40;;;6.40;99.90;;;;;;4980266;28;20042;-84
2021/12/04 08:30:01;;;;;;;57.58;16.08;;;6.30;99.90;;;;;;4976797;28;20066;-84
2021/12/04 08:32:27;;;;;;;48.05;15.15;;;6.30;99.90;;;;;;4996021;28;20030;-85
2021/12/04 08:34:53;;;;;;;49.83;15.27;;;6.30;99.90;;;;;;4993208;28;20146;-84
2021/12/04 08:37:19;;;;;;;50.00;15.63;;;6.30;99.90;;;;;;4976224;28;20444;-84
2021/12/04 08:39:45;;;;;;;61.40;17.63;;;6.30;99.90;;;;;;4985928;28;20026;-84
2021/12/04 08:42:11;;;;;;;51.55;16.88;;;6.30;99.90;;;;;;4996193;28;20019;-84
2021/12/04 08:44:38;;;;;;;59.97;17.65;;;6.30;99.90;;;;;;4984068;28;20058;-84
2021/12/04 08:47:04;;;;;;;48.03;15.43;;;6.30;99.90;;;;;;4994673;28;20030;-84
2021/12/04 08:49:31;;;;;;;65.93;16.65;;;6.30;99.90;;;;;;4994878;28;20023;-83
2021/12/04 08:51:58;;;;;;;51.60;15.55;;;6.30;99.90;;;;;;4986961;28;20026;-83
2021/12/04 08:54:24;;;;;;;53.92;14.55;;;6.40;99.90;;;;;;4982537;28;20043;-82
2021/12/04 08:56:50;;;;;;;49.97;16.50;;;6.40;99.90;;;;;;4981595;28;20496;-83
2021/12/04 08:59:15;;;;;;;57.05;14.95;;;6.30;99.90;;;;;;5000263;28;20050;-81
2021/12/04 09:01:42;;;;;;;43.55;15.00;;;6.40;99.90;;;;;;4996483;28;20019;-83
2021/12/04 09:04:19;;;;;;;31.38;13.48;;;6.40;99.90;;;;;;4981365;28;20066;-80
2021/12/04 09:06:45;;;;;;;53.10;15.05;;;6.40;99.90;;;;;;4980128;28;20038;-81
2021/12/04 09:09:14;;;;;;;42.88;13.73;;;6.40;99.90;;;;;;5014929;28;20026;-82
2021/12/04 09:11:53;;;;;;;43.25;14.32;;;6.40;99.90;;;;;;5000996;28;20493;-81
2021/12/04 09:14:22;;;;;;;46.35;12.50;;;6.40;99.90;;;;;;4993519;28;20604;-82
2021/12/04 09:16:51;;;;;;;42.15;12.23;;;6.40;99.90;;;;;;4988314;28;20537;-83
2021/12/04 09:19:17;;;;;;;43.53;13.30;;;6.40;99.90;;;;;;4991382;28;20019;-83
2021/12/04 09:21:43;;;;;;;41.15;13.15;;;6.50;99.90;;;;;;4995758;28;20034;-84
2021/12/04 09:24:17;;;;;;;39.85;12.75;;;6.50;99.90;;;;;;4999566;28;20023;-83
2021/12/04 09:27:10;;;;;;;42.40;12.70;;;6.60;99.90;;;;;;4994603;28;20028;-83
2021/12/04 09:35:02;;;;;;;37.30;11.90;;;6.60;99.90;;;;;;4989263;28;20039;-85
2021/12/04 10:04:38;;;;;;;31.70;11.18;;;6.60;99.90;;;;;;5020021;28;20150;-85
2021/12/04 10:13:17;;;;;;;32.50;10.45;;;6.70;99.90;;;;;;5015309;28;20065;-85
2021/12/04 10:21:07;;;;;;;42.85;11.30;;;6.70;99.90;;;;;;5000256;28;20515;-86
2021/12/04 10:34:36;;;;;;;25.42;10.25;;;6.80;99.90;;;;;;4999465;28;20043;-86
2021/12/04 10:37:07;;;;;;;33.15;11.02;;;6.70;99.90;;;;;;4997325;28;20038;-82
2021/12/04 10:39:34;;;;;;;30.88;11.25;;;6.80;99.90;;;;;;4993005;28;20027;-81
2021/12/04 10:42:03;;;;;;;34.55;10.68;;;6.80;99.90;;;;;;5000817;28;20022;-80
2021/12/04 10:44:30;;;;;;;36.25;12.15;;;6.80;99.90;;;;;;4982127;28;20070;-81
2021/12/04 10:47:03;;;;;;;30.60;10.77;;;6.80;99.90;;;;;;4994458;28;20034;-82
2021/12/04 10:52:29;;;;;;;34.00;11.20;;;6.80;99.90;;;;;;4992346;28;20117;-81
2021/12/04 10:55:26;;;;;;;36.28;11.32;;;6.80;99.90;;;;;;4985250;28;20391;-82
2021/12/04 10:58:29;;;;;;;36.08;11.73;;;6.80;99.90;;;;;;4997286;28;20148;-82
2021/12/04 11:01:16;;;;;;;42.63;11.73;;;6.90;99.90;;;;;;4992986;28;20034;-82
2021/12/04 11:43:14;;;;;;;47.47;16.88;;;6.70;99.90;;;;;;4985745;28;20118;-80
2021/12/04 11:48:33;;;;;;;49.88;14.32;;;6.80;99.90;;;;;;4984500;28;20034;-81
2021/12/04 11:51:00;;;;;;;40.85;13.70;;;6.80;99.90;;;;;;4992452;28;20395;-80
2021/12/04 11:53:27;;;;;;;50.72;15.40;;;6.80;99.90;;;;;;4977230;28;20129;-82
2021/12/04 11:55:53;;;;;;;50.78;16.15;;;6.80;99.90;;;;;;4982139;28;20023;-82
2021/12/04 11:58:31;;;;;;;45.88;14.57;;;6.80;99.90;;;;;;4992197;28;20047;-82
2021/12/04 12:00:59;;;;;;;54.03;17.30;;;6.80;99.90;;;;;;4984599;28;20045;-81
2021/12/04 12:03:31;;;;;;;44.10;15.05;;;6.80;99.90;;;;;;4994354;28;20483;-81
2021/12/04 12:06:03;;;;;;;50.13;17.63;;;6.80;99.90;;;;;;4988751;28;20034;-80
2021/12/04 12:08:31;;;;;;;49.63;18.67;;;6.80;99.90;;;;;;4994926;28;20030;-81
2021/12/04 12:11:10;;;;;;;49.50;16.83;;;6.80;99.90;;;;;;4994448;28;20022;-82
2021/12/04 12:13:48;;;;;;;49.88;16.05;;;6.80;99.90;;;;;;4995137;28;20065;-82
2021/12/04 12:16:32;;;;;;;51.08;17.95;;;6.80;99.90;;;;;;4993102;28;20031;-83
2021/12/04 12:19:01;;;;;;;50.38;15.15;;;6.90;99.90;;;;;;4982201;28;20014;-82
2021/12/04 12:21:42;;;;;;;53.80;16.95;;;6.90;99.90;;;;;;4995722;28;20106;-82
2021/12/04 12:33:08;;;;;;;40.60;14.07;;;6.90;99.90;;;;;;4985063;28;20108;-81
2021/12/04 12:36:05;;;;;;;47.47;16.67;;;6.90;99.90;;;;;;4990415;28;20034;-79
2021/12/04 12:38:59;;;;;;;41.03;13.45;;;7.00;99.90;;;;;;4994217;28;20081;-79
2021/12/04 12:41:31;;;;;;;43.65;14.10;;;6.90;99.90;;;;;;4976139;28;20077;-79
2021/12/04 12:44:24;;;;;;;49.65;14.63;;;6.90;99.90;;;;;;4981155;28;20047;-79
2021/12/04 12:46:53;;;;;;;37.10;11.73;;;6.90;99.90;;;;;;4975496;28;20483;-79
2021/12/04 12:49:26;;;;;;;34.92;11.13;;;6.80;99.90;;;;;;4993102;28;20038;-79
2021/12/04 12:51:57;;;;;;;37.92;12.93;;;6.80;99.90;;;;;;4983140;28;20580;-80
2021/12/04 12:54:54;;;;;;;29.90;10.35;;;6.80;99.90;;;;;;4982999;28;20026;-80
2021/12/04 12:57:42;;;;;;;38.22;12.95;;;6.90;99.90;;;;;;4989596;28;20053;-79
2021/12/04 13:14:27;;;;;;;28.73;9.35;;;6.90;99.90;;;;;;4975785;28;20132;-80
2021/12/04 13:17:16;;;;;;;21.92;9.55;;;6.90;99.90;;;;;;5013111;28;20038;-80
2021/12/04 13:19:45;;;;;;;28.52;9.70;;;6.90;99.90;;;;;;5001276;28;20034;-80
2021/12/04 13:22:17;;;;;;;29.63;9.45;;;6.90;99.90;;;;;;4985453;28;20096;-80
2021/12/04 13:24:46;;;;;;;18.50;9.20;;;6.90;99.90;;;;;;4990986;28;20099;-80
2021/12/04 13:29:42;;;;;;;29.25;9.75;;;7.00;99.90;;;;;;4989155;28;20034;-80
2021/12/04 13:32:12;;;;;;;25.20;9.75;;;7.00;99.90;;;;;;4994804;28;20030;-79
2021/12/04 13:34:40;;;;;;;20.95;9.10;;;7.00;99.90;;;;;;4993766;28;20038;-82
2021/12/04 13:37:08;;;;;;;21.83;10.05;;;7.00;99.90;;;;;;4994050;28;20030;-80
2021/12/04 13:39:35;;;;;;;17.73;7.90;;;7.00;99.90;;;;;;4984735;28;20492;-79
2021/12/04 13:42:02;;;;;;;19.77;9.00;;;6.90;99.90;;;;;;4976540;28;20109;-79
2021/12/04 13:44:29;;;;;;;19.45;8.50;;;6.90;99.90;;;;;;4997259;28;20022;-78
2021/12/04 13:47:05;;;;;;;27.63;9.50;;;6.80;99.90;;;;;;4994805;28;20075;-81
2021/12/04 13:50:06;;;;;;;24.73;8.88;;;6.80;99.90;;;;;;4996535;28;20027;-78
2021/12/04 13:52:33;;;;;;;23.08;8.55;;;6.80;99.90;;;;;;4995896;28;20045;-79
2021/12/04 13:55:08;;;;;;;21.85;8.45;;;6.90;99.90;;;;;;4979226;28;20109;-80
2021/12/04 13:57:38;;;;;;;23.48;8.38;;;6.80;99.90;;;;;;4976787;28;20057;-80
2021/12/04 14:00:05;;;;;;;19.42;8.43;;;6.80;99.90;;;;;;4983235;28;20019;-80
2021/12/04 14:02:32;;;;;;;21.80;8.70;;;6.80;99.90;;;;;;4977636;28;20038;-81
2021/12/04 14:05:02;;;;;;;24.45;9.57;;;6.80;99.90;;;;;;4991834;28;20033;-81
2021/12/04 14:07:29;;;;;;;25.90;9.15;;;6.80;99.90;;;;;;4995380;28;20064;-82
2021/12/04 14:09:55;;;;;;;21.45;8.25;;;6.80;99.90;;;;;;4979766;28;20019;-81
2021/12/04 14:12:21;;;;;;;26.27;8.95;;;6.80;99.90;;;;;;4976162;28;20015;-81
2021/12/04 14:14:47;;;;;;;22.70;8.80;;;6.90;99.90;;;;;;4991523;28;20023;-80
2021/12/04 14:17:16;;;;;;;24.92;9.55;;;6.90;99.90;;;;;;4983882;28;20031;-81
2021/12/04 14:19:43;;;;;;;26.00;9.75;;;6.90;99.90;;;;;;4990615;28;20030;-82
2021/12/04 14:22:10;;;;;;;25.75;9.48;;;6.90;99.90;;;;;;4987969;28;20030;-81
2021/12/04 14:24:54;;;;;;;25.40;10.02;;;6.90;99.90;;;;;;4995642;28;20026;-80
2021/12/04 14:27:25;;;;;;;27.30;9.20;;;6.90;99.90;;;;;;4994706;28;20034;-82
2021/12/04 14:29:59;;;;;;;27.30;9.88;;;6.90;99.90;;;;;;4996669;28;20030;-81
2021/12/04 14:32:35;;;;;;;26.08;9.80;;;6.90;99.90;;;;;;4989442;28;20420;-80
2021/12/04 14:35:06;;;;;;;26.48;8.52;;;6.80;99.90;;;;;;4978217;28;20070;-81
2021/12/04 14:37:35;;;;;;;26.08;9.50;;;6.80;99.90;;;;;;4976271;28;20038;-81
2021/12/04 14:40:02;;;;;;;25.02;10.13;;;6.80;99.90;;;;;;4995076;28;20092;-81
2021/12/04 14:42:31;;;;;;;24.55;9.70;;;6.80;99.90;;;;;;4977433;28;20082;-82
2021/12/04 14:45:07;;;;;;;26.75;9.32;;;6.90;99.90;;;;;;4976244;28;20023;-81
2021/12/04 14:47:44;;;;;;;18.48;7.90;;;6.70;99.90;;;;;;4997277;28;20048;-84
2021/12/04 14:50:11;;;;;;;20.60;7.95;;;6.80;99.90;;;;;;4994353;28;20511;-85
2021/12/04 14:52:38;;;;;;;13.17;5.03;;;6.70;99.90;;;;;;4995454;28;20094;-85
2021/12/04 14:55:17;;;;;;;15.02;6.50;;;6.60;99.90;;;;;;4996269;28;20049;-81
2021/12/04 14:57:43;;;;;;;18.77;6.35;;;6.50;99.90;;;;;;4977284;28;20045;-82
2021/12/04 15:00:17;;;;;;;11.43;4.32;;;6.50;99.90;;;;;;4991002;28;20027;-85
2021/12/04 15:02:57;;;;;;;15.90;6.10;;;6.40;99.90;;;;;;4990857;28;20049;-84
2021/12/04 15:05:33;;;;;;;17.00;5.82;;;6.40;99.90;;;;;;5005119;28;20030;-83
2021/12/04 15:08:33;;;;;;;14.27;5.32;;;6.40;99.90;;;;;;4992485;28;20038;-85
2021/12/04 15:11:21;;;;;;;13.98;5.00;;;6.40;99.90;;;;;;5009975;28;20055;-83
2021/12/04 15:14:03;;;;;;;;;;;6.40;99.90;;;;;;4982754;28;20057;-82
2021/12/04 15:16:41;;;;;;;16.83;5.35;;;6.40;99.90;;;;;;4979396;28;19928;-81
2021/12/04 15:19:20;;;;;;;16.65;5.95;;;6.40;99.90;;;;;;4978199;28;20509;-81
2021/12/04 15:22:02;;;;;;;21.55;6.93;;;6.40;99.90;;;;;;4985466;28;20031;-82
2021/12/04 15:24:38;;;;;;;19.58;5.85;;;6.40;99.90;;;;;;4978922;28;20054;-83
2021/12/04 15:27:07;;;;;;;16.20;5.22;;;6.50;99.90;;;;;;4987069;28;20041;-83
2021/12/04 15:29:34;;;;;;;13.20;5.43;;;6.50;99.90;;;;;;4994664;28;20130;-81
2021/12/04 15:32:06;;;;;;;12.23;4.65;;;6.50;99.90;;;;;;4986656;28;20031;-81
2021/12/04 15:34:49;;;;;;;18.92;5.30;;;6.40;99.90;;;;;;4980415;28;20508;-81
2021/12/04 15:37:25;;;;;;;14.20;4.97;;;6.50;99.90;;;;;;4983323;28;20041;-81
2021/12/04 15:39:51;;;;;;;10.73;3.78;;;6.50;99.90;;;;;;4985729;28;20019;-82
2021/12/04 15:45:00;;;;;;;15.75;4.10;;;6.40;99.90;;;;;;4976172;28;20046;-81
2021/12/04 15:55:20;;;;;;;6.53;2.38;;;6.40;99.90;;;;;;4994918;28;20126;-81
2021/12/04 15:57:54;;;;;;;7.72;2.90;;;6.40;99.90;;;;;;4982872;28;20078;-82
2021/12/04 16:00:21;;;;;;;10.43;2.20;;;6.40;99.90;;;;;;4991075;28;20035;-81
2021/12/04 16:02:51;;;;;;;4.50;2.30;;;6.40;99.90;;;;;;4993807;28;20033;-82
2021/12/04 16:05:20;;;;;;;4.63;2.30;;;6.50;99.90;;;;;;4992244;28;20506;-82
2021/12/04 16:07:59;;;;;;;5.55;2.42;;;6.50;99.90;;;;;;4981172;28;20026;-84
2021/12/04 16:10:24;;;;;;;8.35;2.10;;;6.50;99.90;;;;;;4994579;28;20027;-83
2021/12/04 16:12:56;;;;;;;7.68;2.45;;;6.60;99.90;;;;;;4985339;28;20117;-85
2021/12/04 16:15:25;;;;;;;9.88;2.30;;;6.60;99.90;;;;;;4977387;28;20432;-84